createdAt,value
2019-06-15T00:01:48.901Z,15.63
2019-06-15T00:04:19.562Z,15.20
2019-06-15T00:06:52.571Z,14.77
2019-06-15T00:09:23.500Z,15.43
2019-06-15T00:11:55.664Z,15.30
2019-06-15T00:14:27.540Z,14.33
2019-06-15T00:16:59.686Z,16.43
2019-06-15T00:19:32.686Z,14.87
2019-06-15T00:22:03.803Z,15.00
2019-06-15T00:24:36.749Z,15.90
2019-06-15T00:27:09.610Z,15.20
2019-06-15T00:29:40.632Z,15.50
2019-06-15T00:32:12.131Z,14.70
2019-06-15T00:34:43.807Z,15.00
2019-06-15T00:37:14.709Z,15.53
2019-06-15T00:39:45.718Z,15.23
2019-06-15T00:42:16.673Z,14.17
2019-06-15T00:44:47.818Z,14.80
2019-06-15T00:47:19.819Z,13.77
2019-06-15T00:49:51.856Z,14.03
2019-06-15T00:52:22.828Z,14.03
2019-06-15T00:54:54.830Z,14.60
2019-06-15T00:57:26.933Z,15.20
2019-06-15T00:59:57.777Z,14.60
2019-06-15T01:02:30.863Z,14.90
2019-06-15T01:05:04.027Z,13.83
2019-06-15T01:07:36.840Z,14.63
2019-06-15T01:10:08.167Z,15.10
2019-06-15T01:12:40.860Z,13.57
2019-06-15T01:15:12.215Z,14.10
2019-06-15T01:17:44.902Z,14.97
2019-06-15T01:20:16.326Z,14.43
2019-06-15T01:22:49.046Z,13.40
2019-06-15T01:25:22.096Z,14.73
2019-06-15T01:27:53.311Z,12.60
2019-06-15T01:30:24.102Z,13.10
2019-06-15T01:32:57.103Z,14.73
2019-06-15T01:35:30.125Z,13.80
2019-06-15T01:38:03.112Z,14.00
2019-06-15T01:40:36.148Z,14.50
2019-06-15T01:43:07.065Z,13.67
2019-06-15T01:45:37.844Z,13.80
2019-06-15T01:48:10.269Z,13.77
2019-06-15T01:50:42.084Z,14.87
2019-06-15T01:53:14.020Z,13.87
2019-06-15T01:55:47.154Z,14.20
2019-06-15T01:58:19.090Z,13.73
2019-06-15T02:00:50.103Z,14.37
2019-06-15T02:03:22.079Z,13.80
2019-06-15T02:05:55.235Z,14.00
2019-06-15T02:08:26.092Z,14.10
2019-06-15T02:10:58.305Z,13.47
2019-06-15T02:13:30.169Z,14.83
2019-06-15T02:16:03.336Z,14.50
2019-06-15T02:18:36.307Z,14.90
2019-06-15T02:21:09.346Z,14.87
2019-06-15T02:23:42.284Z,14.23
2019-06-15T02:26:14.610Z,14.10
2019-06-15T02:28:47.252Z,14.50
2019-06-15T02:31:18.305Z,14.80
2019-06-15T02:33:50.299Z,14.53
2019-06-15T02:36:22.426Z,14.77
2019-06-15T02:38:53.479Z,13.73
2019-06-15T02:41:24.309Z,13.37
2019-06-15T02:43:55.463Z,14.33
2019-06-15T02:46:27.416Z,14.80
2019-06-15T02:48:59.383Z,14.77
2019-06-15T02:51:30.626Z,14.10
2019-06-15T02:54:02.396Z,15.40
2019-06-15T02:56:33.546Z,14.67
2019-06-15T02:59:06.512Z,15.03
2019-06-15T03:01:39.522Z,14.67
2019-06-15T03:04:12.676Z,13.57
2019-06-15T03:06:43.821Z,14.57
2019-06-15T03:09:15.727Z,14.33
2019-06-15T03:11:47.545Z,15.37
2019-06-15T03:14:20.657Z,15.97
2019-06-15T03:16:51.481Z,14.10
2019-06-15T03:19:22.625Z,14.03
2019-06-15T03:21:53.706Z,13.10
2019-06-15T03:24:24.676Z,15.23
2019-06-15T03:26:55.624Z,13.93
2019-06-15T03:29:26.754Z,15.13
2019-06-15T03:31:57.751Z,13.57
2019-06-15T03:34:28.737Z,13.37
2019-06-15T03:37:01.696Z,14.17
2019-06-15T03:39:33.656Z,13.93
2019-06-15T03:42:06.628Z,12.57
2019-06-15T03:44:37.882Z,13.63
2019-06-15T03:47:10.739Z,13.43
2019-06-15T03:49:41.145Z,12.60
2019-06-15T03:52:13.685Z,13.90
2019-06-15T03:54:45.833Z,12.50
2019-06-15T03:57:18.778Z,13.00
2019-06-15T03:59:51.697Z,12.70
2019-06-15T04:02:24.854Z,13.63
2019-06-15T04:04:56.888Z,13.40
2019-06-15T04:07:29.753Z,13.90
2019-06-15T04:10:02.956Z,13.00
2019-06-15T04:12:34.897Z,12.20
2019-06-15T04:15:07.874Z,13.20
2019-06-15T04:17:39.827Z,13.30
2019-06-15T04:20:11.033Z,13.27
2019-06-15T04:22:43.885Z,13.17
2019-06-15T04:25:17.118Z,13.07
2019-06-15T04:27:48.015Z,12.53
2019-06-15T04:30:21.106Z,11.65
2019-06-15T04:32:54.033Z,11.80
2019-06-15T04:35:26.985Z,13.80
2019-06-15T04:37:57.980Z,12.07
2019-06-15T04:40:29.131Z,11.90
2019-06-15T04:43:02.048Z,11.67
2019-06-15T04:45:34.093Z,12.53
2019-06-15T04:48:04.987Z,11.10
2019-06-15T04:50:37.215Z,12.13
2019-06-15T04:53:07.571Z,10.87
2019-06-15T04:55:39.116Z,11.80
2019-06-15T04:58:12.079Z,12.60
2019-06-15T05:00:43.201Z,12.90
2019-06-15T05:03:14.163Z,12.73
2019-06-15T05:05:46.159Z,14.30
2019-06-15T05:08:17.110Z,13.47
2019-06-15T05:10:48.145Z,13.00
2019-06-15T05:13:19.327Z,13.87
2019-06-15T05:15:51.243Z,13.13
2019-06-15T05:18:24.231Z,13.27
2019-06-15T05:20:57.227Z,13.67
2019-06-15T05:23:28.191Z,13.70
2019-06-15T05:25:59.274Z,13.03
2019-06-15T05:28:30.261Z,12.30
2019-06-15T05:31:01.364Z,12.40
2019-06-15T05:33:32.228Z,12.23
2019-06-15T05:36:03.410Z,12.53
2019-06-15T05:38:35.199Z,12.10
2019-06-15T05:41:06.274Z,11.83
2019-06-15T05:43:39.239Z,11.37
2019-06-15T05:46:12.370Z,11.87
2019-06-15T05:48:43.301Z,11.73
2019-06-15T05:51:14.379Z,11.37
2019-06-15T05:53:46.503Z,11.33
2019-06-15T05:56:18.433Z,11.60
2019-06-15T05:58:51.881Z,10.90
2019-06-15T06:01:23.390Z,11.40
2019-06-15T06:03:54.412Z,10.50
2019-06-15T06:06:27.410Z,11.77
2019-06-15T06:08:58.406Z,11.00
2019-06-15T06:11:29.532Z,11.40
2019-06-15T06:14:00.468Z,10.10
2019-06-15T06:16:32.511Z,10.80
2019-06-15T06:19:03.591Z,9.47
2019-06-15T06:21:35.539Z,9.50
2019-06-15T06:24:06.478Z,10.77
2019-06-15T06:26:37.576Z,9.87
2019-06-15T06:29:09.702Z,11.27
2019-06-15T06:31:41.663Z,10.13
2019-06-15T06:34:12.859Z,10.10
2019-06-15T06:36:44.669Z,10.27
2019-06-15T06:39:17.511Z,9.20
2019-06-15T06:41:50.753Z,9.83
2019-06-15T06:44:22.679Z,10.20
2019-06-15T06:46:53.822Z,9.47
2019-06-15T06:49:24.660Z,9.83
2019-06-15T06:51:57.686Z,8.20
2019-06-15T06:54:28.796Z,8.50
2019-06-15T06:57:01.837Z,8.07
2019-06-15T06:59:32.830Z,8.80
2019-06-15T07:02:05.718Z,8.33
2019-06-15T07:04:36.848Z,8.40
2019-06-15T07:07:09.861Z,7.80
2019-06-15T07:09:41.857Z,7.70
2019-06-15T07:12:13.902Z,7.70
2019-06-15T07:14:46.857Z,7.77
2019-06-15T07:17:20.904Z,7.57
2019-06-15T07:19:52.888Z,8.50
2019-06-15T07:22:25.984Z,8.30
2019-06-15T07:24:58.940Z,7.87
2019-06-15T07:27:29.900Z,7.87
2019-06-15T07:30:00.834Z,6.87
2019-06-15T07:32:31.990Z,9.23
2019-06-15T07:35:03.948Z,7.20
2019-06-15T07:37:34.873Z,7.63
2019-06-15T07:40:08.055Z,8.30
2019-06-15T07:42:41.072Z,7.60
2019-06-15T07:45:14.147Z,8.73
2019-06-15T07:47:44.999Z,8.93
2019-06-15T07:50:16.048Z,8.20
2019-06-15T07:52:46.942Z,8.33
2019-06-15T07:55:19.143Z,8.90
2019-06-15T07:57:52.307Z,8.50
2019-06-15T08:00:24.071Z,8.47
2019-06-15T08:02:55.126Z,8.60
2019-06-15T08:05:27.994Z,8.07
2019-06-15T08:08:01.211Z,8.43
2019-06-15T08:10:32.234Z,9.23
2019-06-15T08:13:03.206Z,8.80
2019-06-15T08:15:36.171Z,8.20
2019-06-15T08:18:09.872Z,8.03
2019-06-15T08:20:42.301Z,8.57
2019-06-15T08:23:14.272Z,8.80
2019-06-15T08:25:46.215Z,9.23
2019-06-15T08:28:18.263Z,9.70
2019-06-15T08:30:49.173Z,9.67
2019-06-15T08:33:19.916Z,9.30
2019-06-15T08:35:50.389Z,8.97
2019-06-15T08:38:23.350Z,8.50
2019-06-15T08:40:54.308Z,8.23
2019-06-15T08:43:25.237Z,8.67
2019-06-15T08:45:57.534Z,9.10
2019-06-15T08:48:28.474Z,8.33
2019-06-15T08:51:01.452Z,8.43
2019-06-15T08:53:32.466Z,9.07
2019-06-15T08:56:04.219Z,8.37
2019-06-15T08:58:37.422Z,8.20
2019-06-15T09:01:08.335Z,8.73
2019-06-15T09:03:41.341Z,8.10
2019-06-15T09:06:14.550Z,9.37
2019-06-15T09:08:47.540Z,8.67
2019-06-15T09:11:20.425Z,8.57
2019-06-15T09:13:52.580Z,8.97
2019-06-15T09:16:25.914Z,8.60
2019-06-15T09:18:57.581Z,8.60
2019-06-15T09:21:30.701Z,8.00
2019-06-15T09:24:03.532Z,8.83
2019-06-15T09:26:36.509Z,7.93
2019-06-15T09:29:11.384Z,8.57
2019-06-15T09:31:41.691Z,8.17
2019-06-15T09:34:18.859Z,8.03
2019-06-15T09:36:46.711Z,8.80
2019-06-15T09:39:18.541Z,9.10
2019-06-15T09:41:51.698Z,8.13
2019-06-15T09:44:23.686Z,8.93
2019-06-15T09:46:56.612Z,8.83
2019-06-15T09:49:27.770Z,8.10
2019-06-15T09:51:59.691Z,8.13
2019-06-15T09:54:31.688Z,7.40
2019-06-15T09:57:03.732Z,7.90
2019-06-15T09:59:38.279Z,7.50
2019-06-15T10:02:08.792Z,8.27
2019-06-15T10:04:40.640Z,8.17
2019-06-15T10:07:12.866Z,7.47
2019-06-15T10:09:44.669Z,8.00
2019-06-15T10:12:16.965Z,7.00
2019-06-15T10:14:48.837Z,7.40
2019-06-15T10:17:20.889Z,7.80
2019-06-15T10:19:51.904Z,7.80
2019-06-15T10:22:23.912Z,7.10
2019-06-15T10:24:54.330Z,6.80
2019-06-15T10:27:26.906Z,6.50
2019-06-15T10:29:59.894Z,6.60
2019-06-15T10:32:32.897Z,9.17
2019-06-15T10:35:03.866Z,6.67
2019-06-15T10:37:36.036Z,7.07
2019-06-15T10:40:07.039Z,6.63
2019-06-15T10:42:40.039Z,6.20
2019-06-15T10:45:10.967Z,6.67
2019-06-15T10:47:44.037Z,7.50
2019-06-15T10:50:17.188Z,6.73
2019-06-15T10:52:48.110Z,7.07
2019-06-15T10:55:20.924Z,7.00
2019-06-15T10:57:52.112Z,7.03
2019-06-15T11:00:24.570Z,7.90
2019-06-15T11:02:57.156Z,7.23
2019-06-15T11:05:30.171Z,6.30
2019-06-15T11:08:04.039Z,6.20
2019-06-15T11:11:17.723Z,6.70
2019-06-15T11:13:48.488Z,6.93
2019-06-15T11:16:21.109Z,7.10
2019-06-15T11:18:54.206Z,6.10
2019-06-15T11:21:27.274Z,5.53
2019-06-15T11:23:59.245Z,6.50
2019-06-15T11:26:30.071Z,6.20
2019-06-15T11:29:01.184Z,6.10
2019-06-15T11:31:34.243Z,6.77
2019-06-15T11:34:07.224Z,5.93
2019-06-15T11:36:40.189Z,5.43
2019-06-15T11:39:11.383Z,5.63
2019-06-15T11:41:44.350Z,5.80
2019-06-15T11:44:17.286Z,5.77
2019-06-15T11:46:50.274Z,6.50
2019-06-15T11:49:23.302Z,5.90
2019-06-15T11:51:56.262Z,5.90
2019-06-15T11:54:27.454Z,6.00
2019-06-15T11:57:00.270Z,5.60
2019-06-15T11:59:30.718Z,5.23
2019-06-15T12:02:01.492Z,5.40
2019-06-15T12:04:32.003Z,5.87
2019-06-15T12:07:02.783Z,5.93
2019-06-15T12:09:35.358Z,5.67
2019-06-15T12:12:06.448Z,4.60
2019-06-15T12:14:36.838Z,5.27
2019-06-15T12:17:07.493Z,5.57
2019-06-15T12:19:39.482Z,5.27
2019-06-15T12:22:11.511Z,4.93
2019-06-15T12:24:44.451Z,5.07
2019-06-15T12:27:17.451Z,5.20
2019-06-15T12:29:48.534Z,5.03
2019-06-15T12:32:19.613Z,5.85
2019-06-15T12:34:50.039Z,5.25
2019-06-15T12:37:20.646Z,6.00
2019-06-15T12:39:53.586Z,4.47
2019-06-15T12:42:24.514Z,5.55
2019-06-15T12:44:55.665Z,5.05
2019-06-15T12:47:28.629Z,5.37
2019-06-15T12:50:00.645Z,5.40
2019-06-15T12:52:31.764Z,5.55
2019-06-15T12:55:04.665Z,6.20
2019-06-15T12:57:37.698Z,4.85
2019-06-15T13:00:10.105Z,5.90
2019-06-15T13:02:42.762Z,5.50
2019-06-15T13:05:13.752Z,6.40
2019-06-15T13:07:46.804Z,5.28
2019-06-15T13:10:18.803Z,6.30
2019-06-15T13:12:50.752Z,5.57
2019-06-15T13:15:22.681Z,5.80
2019-06-15T13:17:55.741Z,5.00
2019-06-15T13:20:30.536Z,5.50
2019-06-15T13:23:01.069Z,5.87
2019-06-15T13:25:32.858Z,5.77
2019-06-15T13:28:03.859Z,5.53
2019-06-15T13:30:35.808Z,5.60
2019-06-15T13:33:08.790Z,5.47
2019-06-15T13:35:41.880Z,5.62
2019-06-15T13:38:12.835Z,5.05
2019-06-15T13:40:44.818Z,5.42
2019-06-15T13:43:17.875Z,5.42
2019-06-15T13:45:49.815Z,6.12
2019-06-15T13:48:21.004Z,5.65
2019-06-15T13:50:53.883Z,5.37
2019-06-15T13:53:25.028Z,6.03
2019-06-15T13:55:57.900Z,5.15
2019-06-15T13:58:31.164Z,4.95
2019-06-15T14:01:02.111Z,5.62
2019-06-15T14:03:34.143Z,6.12
2019-06-15T14:06:04.929Z,6.70
2019-06-15T14:08:37.028Z,5.85
2019-06-15T14:11:09.065Z,6.23
2019-06-15T14:13:41.084Z,6.27
2019-06-15T14:16:12.200Z,6.80
2019-06-15T14:18:44.649Z,6.43
2019-06-15T14:21:16.077Z,5.97
2019-06-15T14:23:49.237Z,6.47
2019-06-15T14:26:20.218Z,6.90
2019-06-15T14:28:53.116Z,7.17
2019-06-15T14:31:25.124Z,6.03
2019-06-15T14:33:57.290Z,5.63
2019-06-15T14:36:29.103Z,6.12
2019-06-15T14:39:01.175Z,5.83
2019-06-15T14:41:33.265Z,5.53
2019-06-15T14:44:04.412Z,6.37
2019-06-15T14:46:35.398Z,5.40
2019-06-15T14:49:08.323Z,5.90
2019-06-15T14:51:41.607Z,5.72
2019-06-15T14:54:16.193Z,5.62
2019-06-15T14:56:47.317Z,4.90
2019-06-15T14:59:19.397Z,5.03
2019-06-15T15:02:06.288Z,5.30
2019-06-15T15:04:26.608Z,5.90
2019-06-15T15:06:59.413Z,4.85
2019-06-15T15:09:31.314Z,5.22
2019-06-15T15:12:04.420Z,6.80
2019-06-15T15:14:36.533Z,6.25
2019-06-15T15:17:07.385Z,5.40
2019-06-15T15:19:38.621Z,5.15
2019-06-15T15:22:09.476Z,5.42
2019-06-15T15:24:43.126Z,5.45
2019-06-15T15:27:13.506Z,5.58
2019-06-15T15:29:46.245Z,4.25
2019-06-15T15:32:25.093Z,5.08
2019-06-15T15:34:49.659Z,4.92
2019-06-15T15:37:22.629Z,4.80
2019-06-15T15:39:53.634Z,5.40
2019-06-15T15:42:26.636Z,4.03
2019-06-15T15:44:56.754Z,5.03
2019-06-15T15:47:28.639Z,5.25
2019-06-15T15:50:00.635Z,4.25
2019-06-15T15:52:31.667Z,4.58
2019-06-15T15:55:03.581Z,4.70
2019-06-15T15:57:36.260Z,4.70
2019-06-15T16:00:08.999Z,5.25
2019-06-15T16:02:52.142Z,5.37
2019-06-15T16:05:16.633Z,5.10
2019-06-15T16:07:47.591Z,5.40
2019-06-15T16:10:19.681Z,4.67
2019-06-15T16:12:51.656Z,4.65
2019-06-15T16:15:22.761Z,4.53
2019-06-15T16:17:56.400Z,4.35
2019-06-15T16:20:27.824Z,4.70
2019-06-15T16:23:00.801Z,4.70
2019-06-15T16:25:36.984Z,4.20
2019-06-15T16:28:08.776Z,4.60
2019-06-15T16:31:01.627Z,4.50
2019-06-15T16:33:16.018Z,4.20
2019-06-15T16:35:46.659Z,4.83
2019-06-15T16:38:19.622Z,4.40
2019-06-15T16:40:51.855Z,4.15
2019-06-15T16:43:28.688Z,4.45
2019-06-15T16:45:59.876Z,4.10
2019-06-15T16:48:31.967Z,4.75
2019-06-15T16:51:06.562Z,4.25
2019-06-15T16:53:38.061Z,4.87
2019-06-15T16:56:08.953Z,4.90
2019-06-15T16:58:41.960Z,4.62
2019-06-15T17:01:12.334Z,3.83
2019-06-15T17:03:46.753Z,4.00
2019-06-15T17:06:16.161Z,4.72
2019-06-15T17:08:46.657Z,4.97
2019-06-15T17:11:17.545Z,4.62
2019-06-15T17:13:48.023Z,4.37
2019-06-15T17:16:19.150Z,5.17
2019-06-15T17:18:50.993Z,4.62
2019-06-15T17:21:26.065Z,4.67
2019-06-15T17:23:59.140Z,6.00
2019-06-15T17:26:30.166Z,5.85
2019-06-15T17:29:03.065Z,5.45
2019-06-15T17:31:38.414Z,5.72
2019-06-15T17:34:16.522Z,5.55
2019-06-15T17:36:50.581Z,5.37
2019-06-15T17:39:26.804Z,5.53
2019-06-15T17:41:56.355Z,6.03
2019-06-15T17:44:33.536Z,6.37
2019-06-15T17:47:10.279Z,6.58
2019-06-15T17:49:42.245Z,6.37
2019-06-15T17:52:16.848Z,6.22
2019-06-15T17:54:49.303Z,6.65
2019-06-15T17:57:21.593Z,6.80
2019-06-15T17:59:54.360Z,5.90
2019-06-15T18:02:26.261Z,6.13
2019-06-15T18:04:59.419Z,7.17
2019-06-15T18:07:30.270Z,6.60
2019-06-15T18:10:01.295Z,7.73
2019-06-15T18:12:34.382Z,7.93
2019-06-15T18:15:07.469Z,8.37
2019-06-15T18:17:38.439Z,8.20
2019-06-15T18:20:09.497Z,7.70
2019-06-15T18:22:41.531Z,8.50
2019-06-15T18:25:12.503Z,8.37
2019-06-15T18:27:46.265Z,7.40
2019-06-15T18:30:18.695Z,8.40
2019-06-15T18:32:51.562Z,8.13
2019-06-15T18:35:23.579Z,8.67
2019-06-15T18:37:56.607Z,9.37
2019-06-15T18:40:28.596Z,8.90
2019-06-15T18:43:00.609Z,8.70
2019-06-15T18:45:32.614Z,9.47
2019-06-15T18:48:06.189Z,7.67
2019-06-15T18:50:39.404Z,8.70
2019-06-15T18:53:12.656Z,8.10
2019-06-15T18:55:44.124Z,9.27
2019-06-15T18:58:17.358Z,8.83
2019-06-15T19:00:48.584Z,9.10
2019-06-15T19:03:19.728Z,9.33
2019-06-15T19:05:51.707Z,9.33
2019-06-15T19:08:22.555Z,8.47
2019-06-15T19:10:56.110Z,9.23
2019-06-15T19:13:28.755Z,9.80
2019-06-15T19:16:01.802Z,9.07
2019-06-15T19:18:32.843Z,9.67
2019-06-15T19:21:06.991Z,8.13
2019-06-15T19:23:39.754Z,8.20
2019-06-15T19:26:12.750Z,8.57
2019-06-15T19:28:43.179Z,8.07
2019-06-15T19:31:15.737Z,7.47
2019-06-15T19:33:47.054Z,6.03
2019-06-15T19:36:18.835Z,6.03
2019-06-15T19:38:51.989Z,5.90
2019-06-15T19:41:23.778Z,6.27
2019-06-15T19:43:57.173Z,5.53
2019-06-15T19:46:29.955Z,5.57
2019-06-15T19:49:01.783Z,5.50
2019-06-15T19:51:36.349Z,6.00
2019-06-15T19:54:08.067Z,6.40
2019-06-15T19:56:40.906Z,6.20
2019-06-15T19:59:13.921Z,5.60
2019-06-15T20:01:46.958Z,5.57
2019-06-15T20:04:19.946Z,5.90
2019-06-15T20:06:53.958Z,5.80
2019-06-15T20:09:27.190Z,4.90
2019-06-15T20:12:00.072Z,6.10
2019-06-15T20:14:32.064Z,5.60
2019-06-15T20:17:03.580Z,4.70
2019-06-15T20:19:37.507Z,4.90
2019-06-15T20:22:09.064Z,5.33
2019-06-15T20:24:41.089Z,5.40
2019-06-15T20:27:16.434Z,5.07
2019-06-15T20:29:50.771Z,5.23
2019-06-15T20:32:22.098Z,6.03
2019-06-15T20:34:53.157Z,5.07
2019-06-15T20:37:26.256Z,4.70
2019-06-15T20:39:56.308Z,4.80
2019-06-15T20:42:28.425Z,5.50
2019-06-15T20:45:00.304Z,5.30
2019-06-15T20:47:31.138Z,5.00
2019-06-15T20:50:02.312Z,9.93
2019-06-15T20:52:36.873Z,14.60
2019-06-15T20:55:07.858Z,14.00
2019-06-15T20:57:38.264Z,11.90
2019-06-15T21:00:11.391Z,5.50
2019-06-15T21:02:43.332Z,4.93
2019-06-15T21:05:32.612Z,4.73
2019-06-15T21:07:51.374Z,4.50
2019-06-15T21:10:22.372Z,4.70
2019-06-15T21:12:55.409Z,5.20
2019-06-15T21:15:29.475Z,5.10
2019-06-15T21:18:01.371Z,4.90
2019-06-15T21:20:36.177Z,4.60
2019-06-15T21:23:07.469Z,5.40
2019-06-15T21:25:39.582Z,4.70
2019-06-15T21:28:12.580Z,5.07
2019-06-15T21:30:46.875Z,5.23
2019-06-15T21:33:21.121Z,5.27
2019-06-15T21:35:53.334Z,6.03
2019-06-15T21:38:26.502Z,5.20
2019-06-15T21:40:59.600Z,5.00
2019-06-15T21:43:30.638Z,5.10
2019-06-15T21:46:06.162Z,5.10
2019-06-15T21:48:36.480Z,4.50
2019-06-15T21:51:08.195Z,5.23
2019-06-15T21:53:43.355Z,4.67
2019-06-15T21:56:16.125Z,5.17
2019-06-15T21:58:47.633Z,5.10
2019-06-15T22:01:37.368Z,5.30
2019-06-15T22:04:08.664Z,4.30
2019-06-15T22:06:39.585Z,5.40
2019-06-15T22:09:20.044Z,4.90
2019-06-15T22:11:48.749Z,5.20
2019-06-15T22:14:22.799Z,5.57
2019-06-15T22:16:53.665Z,5.20
2019-06-15T22:19:26.167Z,4.60
2019-06-15T22:21:56.729Z,5.80
2019-06-15T22:24:28.820Z,5.40
2019-06-15T22:27:01.457Z,5.07
2019-06-15T22:29:36.311Z,5.17
2019-06-15T22:32:06.846Z,5.57
2019-06-15T22:34:39.785Z,5.73
2019-06-15T22:37:12.774Z,5.77
2019-06-15T22:39:46.670Z,5.30
2019-06-15T22:42:18.868Z,6.00
2019-06-15T22:44:49.794Z,5.50
2019-06-15T22:47:22.824Z,5.50
2019-06-15T22:49:56.313Z,5.57
2019-06-15T22:52:26.877Z,5.67
2019-06-15T22:54:58.891Z,6.07
2019-06-15T22:57:31.997Z,5.73
2019-06-15T23:00:03.021Z,6.50
2019-06-15T23:02:34.003Z,5.23
2019-06-15T23:05:07.052Z,4.70
2019-06-15T23:07:39.918Z,4.50
2019-06-15T23:10:13.169Z,4.30
2019-06-15T23:12:46.240Z,5.57
2019-06-15T23:15:18.165Z,5.47
2019-06-15T23:17:50.986Z,4.73
2019-06-15T23:20:23.124Z,4.70
2019-06-15T23:22:56.134Z,5.43
2019-06-15T23:25:28.976Z,5.13
2019-06-15T23:28:02.025Z,4.80
2019-06-15T23:30:36.347Z,4.63
2019-06-15T23:33:07.151Z,5.30
2019-06-15T23:35:46.526Z,5.60
2019-06-15T23:38:18.069Z,4.77
2019-06-15T23:40:49.875Z,4.73
2019-06-15T23:43:21.231Z,4.87
2019-06-15T23:45:52.099Z,4.70
2019-06-15T23:48:22.494Z,4.63
2019-06-15T23:50:56.892Z,4.90
2019-06-15T23:53:28.310Z,5.03
2019-06-15T23:56:00.249Z,5.17
2019-06-15T23:58:32.277Z,5.40
